Time;durP1;ratioP1;P1;durP2;ratioP2;P2;SDS_P1;SDS_P2;PMS_P1;PMS_P2;Temp;Humidity;BMP_temperature;BMP_pressure;BME280_temperature;BME280_humidity;BME280_pressure;Samples;Min_cycle;Max_cycle;Signal;HPM_P1;HPM_P2
2023/06/13 00:00:13;;;;;;;11.95;4.80;;;15.70;88.40;;;;;;5077267;28;20031;-74
2023/06/13 00:02:39;;;;;;;13.43;5.50;;;15.50;88.30;;;;;;5077538;28;20111;-74
2023/06/13 00:05:11;;;;;;;10.50;5.35;;;15.50;88.60;;;;;;5087876;28;20566;-74
2023/06/13 00:07:37;;;;;;;9.35;5.65;;;15.40;89.80;;;;;;5085276;28;20034;-74
2023/06/13 00:10:06;;;;;;;9.65;5.30;;;15.20;90.80;;;;;;5075547;28;20085;-74
2023/06/13 00:12:34;;;;;;;9.77;5.72;;;15.10;90.70;;;;;;5080950;28;20082;-74
2023/06/13 00:15:01;;;;;;;7.63;5.07;;;15.10;90.90;;;;;;5087698;28;20716;-74
2023/06/13 00:17:29;;;;;;;9.02;5.47;;;15.10;91.00;;;;;;5081329;28;20044;-74
2023/06/13 00:19:55;;;;;;;14.43;5.97;;;15.00;91.00;;;;;;5071464;28;20487;-74
2023/06/13 00:22:21;;;;;;;11.43;5.63;;;15.00;90.40;;;;;;5077205;28;20059;-74
2023/06/13 00:24:47;;;;;;;10.38;5.60;;;15.00;90.80;;;;;;5086833;28;20032;-74
2023/06/13 00:27:13;;;;;;;13.90;5.80;;;14.90;91.00;;;;;;5086687;28;20020;-74
2023/06/13 00:29:38;;;;;;;9.82;5.90;;;14.80;91.20;;;;;;5084363;28;20024;-74
2023/06/13 00:32:04;;;;;;;9.77;5.40;;;14.80;91.50;;;;;;5087458;28;20028;-74
2023/06/13 00:34:30;;;;;;;12.27;4.63;;;14.80;91.60;;;;;;5080053;28;20051;-74
2023/06/13 00:36:57;;;;;;;9.32;5.28;;;14.70;91.50;;;;;;5077112;28;20028;-74
2023/06/13 00:39:23;;;;;;;10.88;5.50;;;14.80;91.60;;;;;;5082520;28;20056;-74
2023/06/13 00:41:48;;;;;;;11.45;5.70;;;14.80;91.80;;;;;;5085399;28;20066;-74
2023/06/13 00:44:14;;;;;;;11.32;5.15;;;14.80;91.40;;;;;;5087022;28;20032;-74
2023/06/13 00:46:41;;;;;;;9.70;5.22;;;14.80;91.70;;;;;;5092974;28;20044;-74
2023/06/13 00:49:08;;;;;;;9.13;4.65;;;14.80;91.90;;;;;;5086951;28;20044;-74
2023/06/13 00:51:36;;;;;;;10.77;4.90;;;14.80;91.10;;;;;;5085317;28;20039;-74
2023/06/13 00:54:06;;;;;;;9.88;5.18;;;14.80;91.30;;;;;;5076273;28;20124;-74
2023/06/13 00:56:33;;;;;;;7.90;4.95;;;14.80;91.40;;;;;;5077011;28;20056;-74
2023/06/13 00:59:00;;;;;;;7.88;4.45;;;14.80;91.20;;;;;;5085782;28;20116;-74
2023/06/13 01:01:27;;;;;;;11.38;5.32;;;14.80;91.50;;;;;;5076118;28;20036;-74
2023/06/13 01:03:53;;;;;;;9.93;5.15;;;14.70;91.60;;;;;;5088424;28;20117;-74
2023/06/13 01:06:19;;;;;;;10.52;5.63;;;14.60;92.10;;;;;;5082582;28;20048;-74
2023/06/13 01:08:45;;;;;;;13.00;5.80;;;14.60;92.30;;;;;;5091153;28;20075;-74
2023/06/13 01:11:25;;;;;;;12.48;5.82;;;14.40;92.80;;;;;;5092912;28;20036;-74
2023/06/13 01:13:57;;;;;;;9.73;5.32;;;14.20;93.00;;;;;;5093566;28;20278;-74
2023/06/13 01:16:33;;;;;;;10.20;5.40;;;14.00;93.10;;;;;;5109269;28;20042;-74
2023/06/13 01:19:03;;;;;;;10.60;5.68;;;14.10;93.70;;;;;;5083357;28;20032;-74
2023/06/13 01:21:32;;;;;;;8.52;5.50;;;14.00;93.60;;;;;;5093397;28;20488;-74
2023/06/13 01:24:07;;;;;;;8.48;4.80;;;14.00;93.20;;;;;;5091044;28;20028;-74
2023/06/13 01:26:50;;;;;;;8.88;4.85;;;14.00;93.10;;;;;;5075413;28;20032;-73
2023/06/13 01:29:18;;;;;;;9.32;5.28;;;14.10;92.90;;;;;;5091747;28;20031;-74
2023/06/13 01:31:46;;;;;;;14.38;5.40;;;14.10;92.80;;;;;;5091558;28;20036;-74
2023/06/13 01:34:13;;;;;;;13.80;4.82;;;14.10;92.80;;;;;;5089246;28;20039;-74
2023/06/13 01:36:39;;;;;;;8.77;4.72;;;14.20;92.80;;;;;;5090841;28;20016;-74
2023/06/13 01:39:05;;;;;;;13.75;4.88;;;14.20;92.50;;;;;;5091136;28;20039;-73
2023/06/13 01:41:31;;;;;;;8.95;5.10;;;14.30;92.10;;;;;;5092261;28;20032;-73
2023/06/13 01:43:56;;;;;;;9.73;5.05;;;14.50;91.80;;;;;;5088205;28;20399;-74
2023/06/13 01:46:30;;;;;;;7.88;4.60;;;14.60;91.70;;;;;;5074023;28;20044;-73
2023/06/13 01:49:02;;;;;;;8.25;5.00;;;14.60;91.50;;;;;;5091806;28;20028;-73
2023/06/13 01:51:39;;;;;;;14.52;4.50;;;14.70;91.30;;;;;;5092415;28;20044;-73
2023/06/13 01:54:10;;;;;;;9.40;5.13;;;14.70;91.20;;;;;;5090099;28;20040;-73
2023/06/13 01:56:37;;;;;;;;;;;14.70;91.10;;;;;;5094284;28;20043;-73
2023/06/13 01:59:05;;;;;;;7.93;4.55;;;14.70;90.90;;;;;;5094915;28;19912;-72
2023/06/13 02:01:34;;;;;;;13.82;5.15;;;14.70;91.00;;;;;;5093698;28;20114;-73
2023/06/13 02:04:03;;;;;;;9.10;4.63;;;14.70;91.00;;;;;;5114585;27;20083;-74
2023/06/13 02:06:29;;;;;;;10.52;4.70;;;14.70;91.30;;;;;;5111507;28;20102;-73
2023/06/13 02:08:56;;;;;;;10.65;4.82;;;14.60;91.30;;;;;;5111139;28;20173;-73
2023/06/13 02:11:22;;;;;;;10.27;4.60;;;14.60;91.50;;;;;;5092347;28;20031;-73
2023/06/13 02:13:48;;;;;;;9.18;4.82;;;14.60;91.70;;;;;;5090441;28;20032;-73
2023/06/13 02:16:14;;;;;;;7.25;4.85;;;14.50;91.70;;;;;;5098026;28;20099;-74
2023/06/13 02:18:40;;;;;;;7.72;4.80;;;14.50;91.80;;;;;;5094010;28;20043;-73
2023/06/13 02:21:08;;;;;;;8.05;4.70;;;14.50;91.60;;;;;;5089029;28;20546;-75
2023/06/13 02:23:33;;;;;;;10.57;4.68;;;14.50;91.80;;;;;;5090956;28;20043;-73
2023/06/13 02:25:59;;;;;;;10.57;4.57;;;14.50;92.00;;;;;;5087690;28;20024;-74
2023/06/13 02:28:24;;;;;;;8.80;4.63;;;14.40;92.10;;;;;;5086563;28;20029;-74
2023/06/13 02:30:50;;;;;;;12.73;4.82;;;14.40;92.30;;;;;;5084639;28;20197;-74
2023/06/13 02:33:17;;;;;;;7.00;4.50;;;14.30;92.50;;;;;;5081119;28;20119;-74
2023/06/13 02:35:42;;;;;;;15.45;4.97;;;14.20;92.80;;;;;;5082397;28;20056;-74
2023/06/13 02:38:08;;;;;;;13.25;4.63;;;14.20;92.60;;;;;;5086414;28;20063;-73
2023/06/13 02:40:37;;;;;;;7.70;4.25;;;14.30;92.30;;;;;;5089567;28;20028;-74
2023/06/13 02:43:04;;;;;;;8.75;4.70;;;14.40;92.10;;;;;;5087295;28;20027;-74
2023/06/13 02:45:29;;;;;;;11.25;4.43;;;14.40;92.00;;;;;;5088094;28;20644;-74
2023/06/13 02:47:55;;;;;;;9.63;4.50;;;14.40;92.00;;;;;;5074276;28;20060;-74
2023/06/13 02:50:21;;;;;;;9.18;5.03;;;14.40;91.80;;;;;;5085151;28;20035;-74
2023/06/13 02:52:47;;;;;;;7.88;4.53;;;14.40;92.00;;;;;;5088409;28;20047;-74
2023/06/13 02:55:13;;;;;;;8.00;4.55;;;14.30;92.00;;;;;;5085739;28;20036;-74
2023/06/13 02:57:39;;;;;;;14.75;4.88;;;14.30;92.40;;;;;;5082772;28;20048;-74
2023/06/13 03:00:13;;;;;;;7.82;4.32;;;14.10;92.60;;;;;;5079222;28;20157;-74
2023/06/13 03:02:39;;;;;;;8.90;4.13;;;14.00;92.90;;;;;;5072853;28;20032;-74
2023/06/13 03:05:10;;;;;;;10.23;5.13;;;13.90;93.00;;;;;;5083813;28;20161;-73
2023/06/13 03:07:36;;;;;;;7.22;4.70;;;13.90;93.20;;;;;;5085442;28;20040;-74
2023/06/13 03:10:04;;;;;;;11.52;5.10;;;13.90;93.30;;;;;;5081912;28;20082;-74
2023/06/13 03:12:30;;;;;;;11.45;4.80;;;13.80;93.30;;;;;;5082139;28;20039;-74
2023/06/13 03:14:56;;;;;;;10.68;4.57;;;13.80;93.60;;;;;;5084885;28;20036;-73
2023/06/13 03:17:22;;;;;;;8.48;4.80;;;13.70;93.40;;;;;;5082831;28;20138;-75
2023/06/13 03:19:48;;;;;;;10.32;4.78;;;13.70;93.60;;;;;;5072224;28;20484;-74
2023/06/13 03:22:14;;;;;;;12.60;4.85;;;13.70;93.60;;;;;;5072974;28;20047;-74
2023/06/13 03:24:45;;;;;;;13.85;5.13;;;13.70;93.60;;;;;;5086899;28;20031;-74
2023/06/13 03:27:14;;;;;;;8.20;5.00;;;13.60;93.60;;;;;;5076891;28;20038;-74
2023/06/13 03:29:41;;;;;;;9.38;4.97;;;13.60;93.90;;;;;;5077529;28;20402;-74
2023/06/13 03:32:10;;;;;;;8.38;4.78;;;13.60;94.00;;;;;;5089436;28;20055;-74
2023/06/13 03:34:38;;;;;;;9.40;5.05;;;13.50;94.20;;;;;;5086540;28;20043;-74
2023/06/13 03:37:08;;;;;;;9.07;5.43;;;13.50;94.60;;;;;;5079156;28;20028;-75
2023/06/13 03:39:34;;;;;;;10.60;4.90;;;13.40;94.70;;;;;;5087833;28;20071;-74
2023/06/13 03:42:01;;;;;;;11.30;5.10;;;13.30;95.10;;;;;;5088794;28;20924;-74
2023/06/13 03:44:28;;;;;;;10.98;5.75;;;13.20;95.30;;;;;;5101605;28;20062;-74
2023/06/13 03:46:55;;;;;;;11.35;5.15;;;13.00;95.80;;;;;;5101108;28;20151;-75
2023/06/13 03:49:21;;;;;;;12.30;5.07;;;13.10;95.90;;;;;;5070603;28;20078;-75
2023/06/13 03:51:47;;;;;;;8.40;4.75;;;13.10;96.10;;;;;;5068596;28;20494;-80
2023/06/13 03:54:13;;;;;;;9.07;4.50;;;13.10;95.50;;;;;;5071293;28;20024;-75
2023/06/13 03:56:38;;;;;;;8.95;5.30;;;13.20;95.50;;;;;;5087908;28;20024;-75
2023/06/13 03:59:04;;;;;;;11.00;4.60;;;13.30;95.60;;;;;;5103849;28;20444;-72
2023/06/13 04:01:29;;;;;;;9.48;5.13;;;13.30;95.60;;;;;;5077831;28;20044;-75
2023/06/13 04:03:55;;;;;;;8.48;4.80;;;13.40;94.80;;;;;;5075828;28;20393;-80
2023/06/13 04:06:21;;;;;;;8.18;4.80;;;13.40;95.20;;;;;;5087054;28;20059;-76
2023/06/13 04:08:46;;;;;;;10.35;4.97;;;13.50;95.50;;;;;;5103855;28;20036;-75
2023/06/13 04:11:12;;;;;;;10.35;6.32;;;13.50;95.70;;;;;;5109079;28;20028;-80
2023/06/13 04:13:38;;;;;;;10.18;6.47;;;13.50;95.80;;;;;;5100543;28;20088;-79
2023/06/13 04:16:04;;;;;;;10.27;6.10;;;13.50;96.20;;;;;;5108985;28;20380;-78
2023/06/13 04:18:30;;;;;;;9.15;5.28;;;13.40;95.60;;;;;;5086454;28;20206;-79
2023/06/13 04:20:56;;;;;;;9.40;5.68;;;13.50;95.20;;;;;;5074286;28;20591;-72
2023/06/13 04:23:25;;;;;;;8.70;4.70;;;13.60;95.90;;;;;;5068876;28;20033;-75
2023/06/13 04:25:52;;;;;;;8.75;4.95;;;13.70;95.20;;;;;;5115092;27;20035;-75
2023/06/13 04:28:18;;;;;;;8.73;5.07;;;13.80;95.40;;;;;;5087006;28;20093;-72
2023/06/13 04:30:46;;;;;;;11.13;5.72;;;14.00;95.50;;;;;;5085853;28;20056;-73
2023/06/13 04:33:17;;;;;;;12.02;4.80;;;14.10;95.70;;;;;;5085702;28;20111;-70
2023/06/13 04:35:48;;;;;;;;;;;14.20;94.00;;;;;;5085548;28;20029;-72
2023/06/13 04:38:22;;;;;;;7.03;4.60;;;14.20;94.00;;;;;;5091539;28;19967;-71
2023/06/13 04:40:48;;;;;;;7.93;4.38;;;14.30;94.20;;;;;;5099686;28;20093;-71
2023/06/13 04:43:17;;;;;;;12.65;5.13;;;14.40;94.60;;;;;;5082926;28;20103;-70
2023/06/13 04:45:46;;;;;;;11.35;5.45;;;14.60;94.20;;;;;;5085968;28;20032;-74
2023/06/13 04:48:12;;;;;;;7.60;4.78;;;14.70;93.70;;;;;;5087468;28;20039;-72
2023/06/13 04:50:40;;;;;;;11.27;5.20;;;14.80;93.20;;;;;;5074759;28;20423;-79
2023/06/13 04:53:11;;;;;;;11.68;4.57;;;14.80;93.10;;;;;;5085276;28;20040;-72
2023/06/13 04:55:37;;;;;;;8.65;5.20;;;14.80;92.70;;;;;;5086122;28;20024;-73
2023/06/13 04:58:03;;;;;;;9.88;4.68;;;14.90;92.90;;;;;;5087904;28;20055;-77
2023/06/13 05:00:29;;;;;;;10.55;4.70;;;14.90;92.20;;;;;;5085472;28;20025;-74
2023/06/13 05:03:00;;;;;;;11.07;4.85;;;15.00;92.30;;;;;;5085789;28;20720;-76
2023/06/13 05:05:26;;;;;;;12.10;4.93;;;15.20;92.10;;;;;;5087364;28;20039;-75
2023/06/13 05:07:59;;;;;;;12.45;5.10;;;15.30;92.00;;;;;;5087153;28;20100;-75
2023/06/13 05:10:25;;;;;;;11.27;4.60;;;15.40;91.70;;;;;;5087433;28;20419;-72
2023/06/13 05:12:52;;;;;;;9.27;4.68;;;15.40;91.70;;;;;;5087651;28;20064;-75
2023/06/13 05:15:20;;;;;;;6.82;4.60;;;15.50;91.50;;;;;;5088585;28;20122;-73
2023/06/13 05:17:46;;;;;;;7.40;4.90;;;15.50;91.60;;;;;;5087613;28;20039;-75
2023/06/13 05:20:12;;;;;;;11.27;4.85;;;15.60;91.60;;;;;;5088473;28;20059;-75
2023/06/13 05:22:41;;;;;;;12.52;5.10;;;15.80;91.80;;;;;;5087562;28;20032;-72
2023/06/13 05:25:11;;;;;;;12.75;5.50;;;15.80;91.50;;;;;;5087439;28;20028;-73
2023/06/13 05:27:37;;;;;;;9.20;4.80;;;15.90;91.50;;;;;;5088576;28;20035;-74
2023/06/13 05:30:09;;;;;;;10.00;5.10;;;15.90;91.30;;;;;;5087606;28;20036;-71
2023/06/13 05:32:35;;;;;;;9.82;5.15;;;15.90;91.30;;;;;;5085973;28;20032;-76
2023/06/13 05:35:00;;;;;;;13.23;5.72;;;16.00;91.80;;;;;;5079737;28;20028;-71
2023/06/13 05:37:28;;;;;;;11.50;5.82;;;16.00;90.40;;;;;;5093877;28;20035;-70
2023/06/13 05:39:54;;;;;;;9.88;4.88;;;16.10;90.90;;;;;;5081095;28;20032;-70
2023/06/13 05:42:20;;;;;;;8.93;5.50;;;16.10;91.20;;;;;;5089831;28;20043;-71
2023/06/13 05:44:46;;;;;;;8.45;5.03;;;16.20;90.80;;;;;;5088117;28;20023;-69
2023/06/13 05:47:12;;;;;;;7.85;4.60;;;16.40;90.00;;;;;;5087986;28;20085;-77
2023/06/13 05:49:37;;;;;;;6.85;4.32;;;16.60;89.30;;;;;;5092129;28;20035;-73
2023/06/13 05:52:03;;;;;;;6.40;4.40;;;16.60;87.50;;;;;;5079688;28;20102;-72
2023/06/13 05:54:31;;;;;;;13.57;4.63;;;16.70;86.80;;;;;;5081497;28;20035;-74
2023/06/13 05:56:56;;;;;;;7.15;4.53;;;16.80;84.40;;;;;;5094763;28;20154;-76
2023/06/13 05:59:22;;;;;;;11.20;4.53;;;17.00;84.40;;;;;;5094772;28;20115;-76
2023/06/13 06:01:49;;;;;;;11.32;4.53;;;17.10;83.10;;;;;;5090047;28;20034;-74
2023/06/13 06:04:14;;;;;;;9.07;4.40;;;17.00;81.50;;;;;;5090079;28;20032;-74
2023/06/13 06:06:40;;;;;;;14.68;5.03;;;17.10;80.90;;;;;;5094519;28;20031;-71
2023/06/13 06:09:06;;;;;;;8.27;4.55;;;17.20;81.70;;;;;;5106814;28;20596;-70
2023/06/13 06:11:32;;;;;;;10.02;4.43;;;17.30;80.10;;;;;;5088939;28;20072;-77
2023/06/13 06:13:57;;;;;;;7.38;4.93;;;17.30;79.10;;;;;;5081998;28;20039;-75
2023/06/13 06:16:23;;;;;;;14.25;4.90;;;17.40;78.70;;;;;;5091477;28;20028;-74
2023/06/13 06:18:50;;;;;;;10.05;4.63;;;17.40;78.00;;;;;;5097788;28;20043;-70
2023/06/13 06:21:15;;;;;;;18.85;5.00;;;17.40;77.90;;;;;;5104129;28;20467;-72
2023/06/13 06:23:42;;;;;;;10.35;4.45;;;17.30;78.20;;;;;;5075490;28;20036;-71
2023/06/13 06:26:09;;;;;;;11.43;4.75;;;17.50;79.30;;;;;;5089718;28;20028;-70
2023/06/13 06:28:35;;;;;;;9.85;4.78;;;17.60;77.90;;;;;;5081382;28;20547;-71
2023/06/13 06:31:01;;;;;;;6.45;4.18;;;17.60;77.80;;;;;;5090391;28;20039;-70
2023/06/13 06:33:29;;;;;;;7.03;4.18;;;17.60;78.30;;;;;;5091031;28;20039;-71
2023/06/13 06:35:55;;;;;;;9.43;4.68;;;17.60;76.80;;;;;;5090177;28;20035;-75
2023/06/13 06:38:21;;;;;;;7.63;4.70;;;17.70;77.00;;;;;;5088056;28;20028;-73
2023/06/13 06:40:46;;;;;;;8.68;4.40;;;17.60;75.90;;;;;;5089804;28;20043;-73
2023/06/13 06:43:12;;;;;;;11.43;5.40;;;17.60;76.20;;;;;;5121124;27;20032;-75
2023/06/13 06:45:37;;;;;;;10.90;5.18;;;17.70;75.40;;;;;;5088657;28;20051;-73
2023/06/13 06:48:03;;;;;;;13.00;4.60;;;17.60;75.30;;;;;;5091637;28;20031;-72
2023/06/13 06:50:29;;;;;;;7.38;4.43;;;17.80;75.50;;;;;;5096685;28;20026;-76
2023/06/13 06:52:55;;;;;;;9.23;5.00;;;17.90;75.40;;;;;;5079837;28;20024;-71
2023/06/13 06:55:20;;;;;;;8.32;4.45;;;17.90;74.60;;;;;;5070494;28;20034;-75
2023/06/13 06:57:46;;;;;;;8.63;4.60;;;18.00;74.60;;;;;;5070571;28;20063;-75
2023/06/13 07:00:14;;;;;;;8.52;4.88;;;18.10;74.20;;;;;;5074842;28;21018;-75
2023/06/13 07:02:41;;;;;;;10.38;4.70;;;18.20;73.70;;;;;;5084135;28;20036;-75
2023/06/13 07:05:08;;;;;;;8.02;4.43;;;18.30;73.80;;;;;;5073384;28;20043;-71
2023/06/13 07:07:35;;;;;;;9.15;4.80;;;18.30;73.00;;;;;;5070131;28;20056;-73
2023/06/13 07:10:01;;;;;;;15.40;4.90;;;18.50;72.70;;;;;;5084529;28;20067;-72
2023/06/13 07:12:26;;;;;;;11.38;4.80;;;18.60;72.30;;;;;;5086934;28;20036;-75
2023/06/13 07:14:52;;;;;;;10.70;4.47;;;18.80;72.50;;;;;;5089643;28;20028;-73
2023/06/13 07:17:18;;;;;;;10.75;4.38;;;19.00;71.80;;;;;;5089534;28;20024;-79
2023/06/13 07:19:43;;;;;;;12.82;4.95;;;19.10;72.40;;;;;;5090205;28;20032;-80
2023/06/13 07:22:09;;;;;;;9.80;4.60;;;19.20;70.50;;;;;;5089439;28;20534;-79
2023/06/13 07:24:34;;;;;;;7.03;4.60;;;19.00;70.50;;;;;;5087600;28;20035;-75
2023/06/13 07:27:00;;;;;;;13.38;4.97;;;19.00;71.70;;;;;;5069449;28;20130;-74
2023/06/13 07:29:26;;;;;;;9.70;4.53;;;19.00;71.60;;;;;;5069545;28;20028;-77
2023/06/13 07:31:51;;;;;;;7.03;4.35;;;19.10;69.60;;;;;;5084739;28;20043;-78
2023/06/13 07:34:17;;;;;;;8.30;4.60;;;18.90;70.60;;;;;;5069527;28;20036;-70
2023/06/13 07:36:43;;;;;;;10.02;4.40;;;18.90;70.80;;;;;;5086882;28;20084;-68
2023/06/13 07:39:13;;;;;;;10.25;4.50;;;18.90;69.90;;;;;;5088678;27;20079;-71
2023/06/13 07:41:39;;;;;;;15.50;4.93;;;18.90;69.60;;;;;;5069584;28;20476;-66
2023/06/13 07:44:05;;;;;;;20.95;4.45;;;19.00;70.60;;;;;;5069594;28;20178;-75
2023/06/13 07:46:31;;;;;;;16.20;4.32;;;19.10;69.70;;;;;;5069980;28;20044;-71
2023/06/13 07:48:57;;;;;;;8.52;4.47;;;19.30;71.10;;;;;;5085512;28;20040;-75
2023/06/13 07:51:24;;;;;;;7.72;4.47;;;19.60;68.10;;;;;;5088019;28;20024;-70
2023/06/13 07:53:50;;;;;;;6.82;4.57;;;19.70;65.90;;;;;;5089445;28;20036;-72
2023/06/13 07:56:16;;;;;;;9.43;4.45;;;19.40;65.90;;;;;;5088862;28;20028;-71
2023/06/13 07:58:41;;;;;;;10.27;4.10;;;19.50;66.40;;;;;;5086166;28;20032;-71
2023/06/13 08:01:07;;;;;;;8.82;4.32;;;19.70;66.30;;;;;;5086781;28;20043;-71
2023/06/13 08:03:34;;;;;;;10.95;3.90;;;19.80;65.20;;;;;;5088484;28;20024;-71
2023/06/13 08:06:02;;;;;;;11.98;4.30;;;19.90;64.10;;;;;;5088675;28;20028;-71
2023/06/13 08:08:28;;;;;;;15.10;4.60;;;20.10;63.40;;;;;;5106670;28;20024;-71
2023/06/13 08:10:54;;;;;;;9.73;4.53;;;20.00;60.40;;;;;;5076501;28;20043;-69
2023/06/13 08:13:20;;;;;;;7.70;4.03;;;20.20;61.20;;;;;;5078213;28;20032;-74
2023/06/13 08:15:48;;;;;;;8.23;4.18;;;20.30;62.50;;;;;;5083283;28;20469;-73
2023/06/13 08:18:17;;;;;;;13.23;4.20;;;20.40;61.30;;;;;;5087468;28;20661;-71
2023/06/13 08:20:43;;;;;;;14.05;4.05;;;20.50;60.00;;;;;;5087736;28;20094;-71
2023/06/13 08:23:09;;;;;;;10.32;4.35;;;20.40;58.70;;;;;;5088180;28;20530;-76
2023/06/13 08:25:35;;;;;;;11.25;4.30;;;20.20;58.40;;;;;;5121282;27;20110;-70
2023/06/13 08:28:06;;;;;;;7.90;4.65;;;20.20;59.60;;;;;;5088161;28;20063;-69
2023/06/13 08:30:32;;;;;;;11.00;4.18;;;20.10;60.10;;;;;;5088010;28;20106;-77
2023/06/13 08:33:01;;;;;;;10.13;4.38;;;20.20;61.50;;;;;;5088265;28;20505;-79
2023/06/13 08:35:28;;;;;;;12.15;4.22;;;20.50;61.60;;;;;;5088948;28;20032;-75
2023/06/13 08:37:54;;;;;;;7.70;4.78;;;20.60;59.90;;;;;;5088450;28;20500;-74
2023/06/13 08:40:19;;;;;;;9.57;4.30;;;20.60;60.00;;;;;;5083759;28;20039;-69
2023/06/13 08:42:46;;;;;;;17.25;4.18;;;20.70;58.70;;;;;;5068867;28;20047;-69
2023/06/13 08:45:13;;;;;;;11.68;4.50;;;20.80;58.50;;;;;;5083136;28;20029;-75
2023/06/13 08:47:40;;;;;;;9.25;4.10;;;20.90;57.60;;;;;;5068181;28;20055;-72
2023/06/13 08:50:07;;;;;;;8.38;4.00;;;21.00;58.50;;;;;;5086916;28;20024;-75
2023/06/13 08:52:41;;;;;;;9.85;4.53;;;20.80;59.30;;;;;;5087785;28;20040;-75
2023/06/13 08:55:17;;;;;;;8.82;4.18;;;20.80;59.50;;;;;;5089812;28;20032;-74
2023/06/13 08:57:45;;;;;;;8.98;4.13;;;20.80;60.30;;;;;;5068615;28;20028;-74
2023/06/13 09:00:13;;;;;;;9.52;4.53;;;20.80;59.50;;;;;;5067673;28;20063;-73
2023/06/13 09:02:46;;;;;;;11.25;4.03;;;20.80;59.50;;;;;;5086731;28;20119;-77
2023/06/13 09:05:15;;;;;;;8.07;4.20;;;21.00;59.70;;;;;;5087704;28;20032;-77
2023/06/13 09:07:42;;;;;;;8.32;4.60;;;21.00;58.70;;;;;;5088453;28;20389;-84
2023/06/13 09:10:12;;;;;;;10.60;4.32;;;21.10;58.60;;;;;;5087965;28;20483;-73
2023/06/13 09:12:42;;;;;;;6.93;4.55;;;21.00;57.90;;;;;;5086726;28;20052;-74
2023/06/13 09:15:09;;;;;;;9.35;4.55;;;21.20;58.10;;;;;;5090876;28;20028;-72
2023/06/13 09:17:35;;;;;;;8.27;4.30;;;21.20;57.70;;;;;;5092462;28;20032;-75
2023/06/13 09:20:01;;;;;;;11.57;4.45;;;21.40;57.00;;;;;;5093806;28;20526;-75
2023/06/13 09:22:27;;;;;;;8.90;4.20;;;21.50;57.10;;;;;;5092420;28;20051;-74
2023/06/13 09:24:55;;;;;;;8.25;4.20;;;21.50;55.20;;;;;;5091924;28;20028;-75
2023/06/13 09:27:21;;;;;;;8.35;4.22;;;21.60;56.00;;;;;;5089499;28;20028;-78
2023/06/13 09:29:51;;;;;;;12.07;4.30;;;21.80;56.40;;;;;;5091410;28;20055;-74
2023/06/13 09:32:19;;;;;;;13.82;4.38;;;21.90;55.90;;;;;;5071104;28;20032;-77
2023/06/13 09:34:47;;;;;;;10.90;4.32;;;22.10;55.60;;;;;;5072302;28;20476;-76
2023/06/13 09:37:13;;;;;;;11.13;3.95;;;22.00;56.90;;;;;;5071226;28;20032;-79
2023/06/13 09:39:55;;;;;;;9.10;4.30;;;22.20;56.50;;;;;;5088698;28;20024;-73
2023/06/13 09:42:26;;;;;;;7.68;4.07;;;22.50;54.70;;;;;;5091448;28;20059;-75
2023/06/13 09:44:52;;;;;;;;;;;22.50;54.70;;;;;;5092332;28;20032;-74
2023/06/13 09:47:22;;;;;;;10.73;4.65;;;22.30;53.60;;;;;;5085256;28;19946;-74
2023/06/13 09:49:55;;;;;;;13.07;4.63;;;22.20;53.50;;;;;;5091608;28;20417;-73
2023/06/13 09:52:25;;;;;;;9.35;3.92;;;22.30;53.20;;;;;;5108239;28;20623;-74
2023/06/13 09:54:52;;;;;;;9.55;4.28;;;22.50;54.10;;;;;;5105741;27;20036;-76
2023/06/13 09:57:22;;;;;;;17.73;4.93;;;22.50;53.50;;;;;;5070855;28;20488;-75
2023/06/13 09:59:49;;;;;;;9.63;4.70;;;22.40;52.90;;;;;;5071816;28;20461;-75
2023/06/13 10:02:17;;;;;;;10.95;4.25;;;22.50;52.70;;;;;;5070191;28;20048;-85
2023/06/13 10:04:43;;;;;;;12.43;4.20;;;22.70;54.60;;;;;;5078423;28;20067;-86
2023/06/13 10:07:12;;;;;;;14.70;4.63;;;23.00;54.60;;;;;;5089008;28;20468;-85
2023/06/13 10:09:39;;;;;;;11.43;4.60;;;23.30;53.90;;;;;;5071173;28;20035;-86
2023/06/13 10:12:10;;;;;;;12.55;4.32;;;23.40;54.60;;;;;;5086549;28;20032;-84
2023/06/13 10:14:40;;;;;;;7.03;4.47;;;23.20;51.90;;;;;;5071071;28;20035;-84
2023/06/13 10:17:12;;;;;;;;;;;22.80;52.70;;;;;;5070906;28;20025;-85
2023/06/13 10:19:39;;;;;;;9.85;4.50;;;22.70;54.00;;;;;;5087576;28;19922;-73
2023/06/13 10:22:08;;;;;;;12.80;4.50;;;23.10;51.50;;;;;;5107489;28;20035;-75
2023/06/13 10:24:38;;;;;;;14.48;4.40;;;23.00;51.00;;;;;;5087669;28;20027;-73
2023/06/13 10:27:07;;;;;;;9.77;4.43;;;23.00;51.30;;;;;;5089793;28;20633;-75
2023/06/13 10:30:09;;;;;;;8.88;4.45;;;23.10;51.70;;;;;;5073622;28;20035;-74
2023/06/13 10:33:24;;;;;;;7.70;4.57;;;23.00;51.40;;;;;;5078809;28;20039;-77
2023/06/13 10:36:14;;;;;;;14.30;4.50;;;23.20;52.20;;;;;;5044244;28;20043;-75
2023/06/13 10:39:09;;;;;;;6.95;4.45;;;23.30;52.30;;;;;;5078794;28;20162;-76
2023/06/13 10:41:47;;;;;;;11.68;4.60;;;23.60;52.50;;;;;;5090310;28;20035;-77
2023/06/13 10:44:55;;;;;;;8.00;4.40;;;23.70;51.40;;;;;;5090195;28;20460;-76
2023/06/13 10:47:24;;;;;;;9.55;4.47;;;23.80;50.50;;;;;;5088707;28;20248;-71
2023/06/13 10:49:53;;;;;;;7.13;4.40;;;24.10;50.90;;;;;;5089950;28;20028;-74
2023/06/13 10:52:22;;;;;;;19.92;4.95;;;24.20;50.70;;;;;;5089002;28;20032;-75
2023/06/13 10:54:55;;;;;;;14.57;4.50;;;24.00;49.80;;;;;;5090483;28;20056;-76
2023/06/13 10:57:41;;;;;;;9.32;4.88;;;24.00;51.00;;;;;;5090235;28;20177;-73
2023/06/13 11:00:22;;;;;;;8.18;4.30;;;24.20;49.90;;;;;;5089633;28;20106;-72
2023/06/13 11:03:11;;;;;;;;;;;24.10;50.70;;;;;;5089987;28;20122;-75
2023/06/13 11:05:50;;;;;;;10.10;4.50;;;24.30;50.00;;;;;;5068701;28;19912;-72
2023/06/13 11:08:20;;;;;;;10.65;4.82;;;24.50;50.30;;;;;;5084671;28;20056;-71
2023/06/13 11:10:51;;;;;;;8.98;4.80;;;24.70;49.60;;;;;;5090014;28;20032;-73
2023/06/13 11:13:20;;;;;;;16.02;4.88;;;24.60;50.10;;;;;;5079980;28;20040;-73
2023/06/13 11:15:47;;;;;;;10.23;4.78;;;24.50;50.20;;;;;;5085217;28;20041;-70
2023/06/13 11:18:14;;;;;;;9.38;4.80;;;24.50;49.30;;;;;;5086033;28;20070;-71
2023/06/13 11:20:53;;;;;;;7.22;4.38;;;24.20;49.70;;;;;;5090184;28;20031;-72
2023/06/13 11:23:22;;;;;;;10.03;4.50;;;24.40;50.40;;;;;;5089106;28;20028;-73
2023/06/13 11:25:51;;;;;;;11.23;4.82;;;24.70;49.00;;;;;;5088293;28;20309;-73
2023/06/13 11:28:18;;;;;;;15.50;4.97;;;24.60;48.90;;;;;;5069080;28;20493;-72
2023/06/13 11:30:50;;;;;;;9.15;4.40;;;24.80;49.70;;;;;;5069593;28;20468;-71
2023/06/13 11:33:17;;;;;;;17.63;4.70;;;24.60;49.70;;;;;;5102053;27;20488;-74
2023/06/13 11:35:48;;;;;;;9.57;5.30;;;24.70;50.10;;;;;;5084506;28;20047;-80
2023/06/13 11:38:21;;;;;;;16.67;5.20;;;24.70;48.40;;;;;;5067900;28;20025;-74
2023/06/13 11:40:54;;;;;;;9.05;4.88;;;25.00;50.20;;;;;;5069607;28;20665;-71
2023/06/13 11:43:20;;;;;;;7.45;5.10;;;25.20;48.30;;;;;;5068555;28;20078;-74
2023/06/13 11:45:46;;;;;;;7.75;4.72;;;25.10;48.20;;;;;;5069013;28;20469;-72
2023/06/13 11:48:18;;;;;;;8.57;4.75;;;25.30;48.30;;;;;;5098444;28;20056;-75
2023/06/13 11:50:44;;;;;;;8.52;4.47;;;25.50;47.30;;;;;;5101921;28;20032;-76
2023/06/13 11:53:11;;;;;;;9.55;4.65;;;25.60;47.80;;;;;;5105492;27;20440;-75
2023/06/13 11:55:36;;;;;;;8.85;4.65;;;25.80;48.90;;;;;;5087677;28;20118;-70
2023/06/13 11:58:02;;;;;;;10.05;4.82;;;25.70;46.60;;;;;;5088338;28;20111;-76
2023/06/13 12:00:28;;;;;;;6.97;4.60;;;25.80;48.00;;;;;;5119163;27;20031;-79
2023/06/13 12:02:57;;;;;;;10.05;5.22;;;25.60;47.80;;;;;;5089423;28;20028;-77
2023/06/13 12:05:24;;;;;;;13.40;4.72;;;25.50;46.90;;;;;;5085930;28;20032;-74
2023/06/13 12:07:51;;;;;;;9.80;4.90;;;25.10;47.50;;;;;;5088538;28;20024;-78
2023/06/13 12:10:17;;;;;;;12.60;5.53;;;25.40;51.10;;;;;;5088386;28;20020;-74
2023/06/13 12:12:56;;;;;;;6.63;4.75;;;25.50;48.70;;;;;;5121967;27;20445;-76
2023/06/13 12:15:26;;;;;;;9.65;4.70;;;25.80;49.00;;;;;;5086734;28;20115;-77
2023/06/13 12:18:00;;;;;;;9.15;4.80;;;26.00;48.00;;;;;;5088837;28;20040;-75
2023/06/13 12:20:26;;;;;;;13.30;5.05;;;26.00;48.90;;;;;;5088342;28;20032;-76
2023/06/13 12:22:59;;;;;;;7.70;5.20;;;26.10;48.00;;;;;;5087851;28;21048;-71
2023/06/13 12:25:28;;;;;;;11.27;4.80;;;25.80;46.40;;;;;;5088178;28;20049;-74
2023/06/13 12:28:01;;;;;;;9.90;5.30;;;25.40;47.60;;;;;;5089060;28;20016;-73
2023/06/13 12:30:29;;;;;;;11.15;5.00;;;25.30;47.30;;;;;;5087027;28;20116;-72
2023/06/13 12:32:57;;;;;;;11.27;5.20;;;25.70;47.70;;;;;;5086638;28;20488;-73
2023/06/13 12:35:29;;;;;;;9.45;4.88;;;25.60;45.80;;;;;;5089327;28;20027;-73
2023/06/13 12:38:02;;;;;;;18.73;6.55;;;25.40;45.30;;;;;;5068666;28;20040;-73
2023/06/13 12:40:32;;;;;;;8.35;4.97;;;25.20;45.50;;;;;;5068078;28;20028;-70
2023/06/13 12:43:01;;;;;;;11.25;5.00;;;24.90;44.80;;;;;;5073756;28;20092;-71
2023/06/13 12:45:27;;;;;;;9.55;5.20;;;24.80;45.20;;;;;;5068592;28;20036;-71
2023/06/13 12:47:57;;;;;;;9.85;4.93;;;24.90;45.20;;;;;;5088676;28;20020;-75